Time;durP1;ratioP1;P1;durP2;ratioP2;P2;SDS_P1;SDS_P2;PMS_P1;PMS_P2;Temp;Humidity;BMP_temperature;BMP_pressure;BME280_temperature;BME280_humidity;BME280_pressure;Samples;Min_cycle;Max_cycle;Signal;HPM_P1;HPM_P2
2023/05/07 00:00:33;;;;;;;6.10;2.80;;;16.30;99.90;;;;;;5119978;28;20040;-73
2023/05/07 00:02:59;;;;;;;4.93;2.45;;;16.30;99.90;;;;;;5120300;28;20016;-73
2023/05/07 00:05:25;;;;;;;3.42;2.55;;;16.10;99.90;;;;;;5120159;28;20030;-73
2023/05/07 00:07:52;;;;;;;5.75;2.78;;;16.10;99.90;;;;;;5120142;28;20015;-72
2023/05/07 00:10:18;;;;;;;11.20;2.85;;;16.20;99.90;;;;;;5120122;28;20015;-72
2023/05/07 00:12:43;;;;;;;8.75;2.78;;;16.30;99.90;;;;;;5119934;28;20028;-73
2023/05/07 00:15:09;;;;;;;5.88;3.00;;;16.30;99.90;;;;;;5118963;28;20019;-73
2023/05/07 00:17:35;;;;;;;3.75;2.72;;;16.20;99.90;;;;;;5119548;28;20119;-73
2023/05/07 00:20:01;;;;;;;5.72;2.90;;;16.20;99.90;;;;;;5119587;28;20020;-73
2023/05/07 00:22:26;;;;;;;6.07;2.38;;;16.30;99.90;;;;;;5119821;28;20134;-73
2023/05/07 00:24:52;;;;;;;4.80;2.47;;;16.20;99.90;;;;;;5119142;28;20016;-73
2023/05/07 00:27:17;;;;;;;6.32;2.47;;;16.20;99.90;;;;;;5119706;28;20024;-73
2023/05/07 00:29:43;;;;;;;7.65;2.90;;;16.10;99.90;;;;;;5119875;28;20017;-73
2023/05/07 00:32:08;;;;;;;6.47;2.50;;;16.20;99.90;;;;;;5119532;28;20129;-73
2023/05/07 00:34:34;;;;;;;4.80;2.72;;;16.20;99.90;;;;;;5119983;28;20028;-73
2023/05/07 00:37:00;;;;;;;5.72;2.88;;;16.10;99.90;;;;;;5118854;28;20024;-73
2023/05/07 00:39:26;;;;;;;4.35;2.83;;;16.10;99.90;;;;;;5119600;28;20027;-73
2023/05/07 00:41:52;;;;;;;4.22;2.55;;;16.10;99.90;;;;;;5118561;28;20024;-73
2023/05/07 00:44:18;;;;;;;3.70;2.28;;;16.10;99.90;;;;;;5118876;28;20024;-72
2023/05/07 00:46:44;;;;;;;4.55;2.47;;;16.10;99.90;;;;;;5118886;28;20027;-73
2023/05/07 00:49:11;;;;;;;3.60;2.30;;;16.20;99.90;;;;;;5119797;28;20110;-73
2023/05/07 00:51:37;;;;;;;4.03;2.15;;;16.20;99.90;;;;;;5117924;28;20062;-73
2023/05/07 00:54:03;;;;;;;5.05;2.50;;;16.20;99.90;;;;;;5118705;28;20047;-73
2023/05/07 00:56:28;;;;;;;6.38;3.17;;;16.10;99.90;;;;;;5119066;28;20050;-73
2023/05/07 00:58:54;;;;;;;4.50;3.08;;;16.10;99.90;;;;;;5118263;28;20023;-73
2023/05/07 01:01:20;;;;;;;7.15;2.45;;;16.20;99.90;;;;;;5118500;28;20055;-73
2023/05/07 01:03:46;;;;;;;4.53;2.78;;;16.10;99.90;;;;;;5118357;28;20043;-73
2023/05/07 01:06:16;;;;;;;6.50;2.83;;;16.10;99.90;;;;;;5118920;28;20098;-73
2023/05/07 01:08:42;;;;;;;3.90;2.63;;;16.10;99.90;;;;;;5118619;28;20115;-73
2023/05/07 01:11:09;;;;;;;2.92;2.22;;;16.10;99.90;;;;;;5118472;28;20080;-73
2023/05/07 01:13:36;;;;;;;4.32;3.00;;;16.10;99.90;;;;;;5118869;28;20027;-72
2023/05/07 01:16:02;;;;;;;7.13;2.95;;;16.10;99.90;;;;;;5117953;28;20027;-72
2023/05/07 01:18:31;;;;;;;5.57;3.03;;;16.10;99.90;;;;;;5117928;28;20016;-72
2023/05/07 01:21:01;;;;;;;3.90;2.58;;;16.20;99.90;;;;;;5118529;28;20081;-73
2023/05/07 01:23:27;;;;;;;4.63;2.92;;;16.20;99.90;;;;;;5117789;28;20028;-73
2023/05/07 01:25:54;;;;;;;3.72;2.08;;;16.20;99.90;;;;;;5117705;28;20023;-72
2023/05/07 01:28:20;;;;;;;4.65;2.63;;;16.00;99.90;;;;;;5117659;28;20051;-72
2023/05/07 01:30:51;;;;;;;5.60;2.72;;;16.10;99.90;;;;;;5117536;28;20016;-73
2023/05/07 01:33:21;;;;;;;5.45;2.80;;;16.10;99.90;;;;;;5117863;28;20028;-73
2023/05/07 01:35:51;;;;;;;4.47;2.72;;;16.10;99.90;;;;;;5117947;28;20024;-72
2023/05/07 01:38:17;;;;;;;7.20;3.30;;;16.10;99.90;;;;;;5117456;28;20023;-73
2023/05/07 01:40:43;;;;;;;3.78;2.90;;;16.10;99.90;;;;;;5117366;28;20095;-73
2023/05/07 01:43:10;;;;;;;4.63;2.90;;;16.00;99.90;;;;;;5117187;28;20118;-72
2023/05/07 01:45:36;;;;;;;4.65;2.80;;;16.00;99.90;;;;;;5117230;28;20068;-73
2023/05/07 01:48:03;;;;;;;5.97;2.80;;;15.90;99.90;;;;;;5117367;28;20020;-73
2023/05/07 01:50:29;;;;;;;6.90;2.95;;;15.90;99.90;;;;;;5117301;28;20062;-73
2023/05/07 01:52:55;;;;;;;5.30;2.45;;;15.90;99.90;;;;;;5118385;28;20020;-73
2023/05/07 01:55:20;;;;;;;5.03;2.70;;;15.90;99.90;;;;;;5117540;28;20066;-72
2023/05/07 01:57:49;;;;;;;4.95;2.92;;;15.90;99.90;;;;;;5117473;28;20050;-72
2023/05/07 02:00:15;;;;;;;7.25;3.60;;;15.90;99.90;;;;;;5117394;28;20036;-72
2023/05/07 02:02:41;;;;;;;6.10;3.10;;;15.90;99.90;;;;;;5116367;28;20019;-72
2023/05/07 02:05:07;;;;;;;5.50;3.08;;;15.90;99.90;;;;;;5117028;28;20110;-73
2023/05/07 02:07:32;;;;;;;4.43;2.60;;;15.90;99.90;;;;;;5116973;28;20073;-72
2023/05/07 02:09:58;;;;;;;3.78;2.67;;;15.90;99.90;;;;;;5116794;28;20022;-72
2023/05/07 02:12:23;;;;;;;3.67;2.65;;;15.90;99.90;;;;;;5117215;28;20062;-72
2023/05/07 02:14:49;;;;;;;6.70;3.40;;;15.90;99.90;;;;;;5116852;28;20180;-73
2023/05/07 02:17:15;;;;;;;5.63;3.00;;;15.80;99.90;;;;;;5117965;28;20063;-73
2023/05/07 02:19:40;;;;;;;3.38;2.72;;;15.90;99.90;;;;;;5116668;28;20110;-73
2023/05/07 02:22:07;;;;;;;7.63;3.10;;;15.90;99.90;;;;;;5116976;28;20045;-73
2023/05/07 02:24:32;;;;;;;12.95;3.58;;;15.70;99.90;;;;;;5116815;28;20015;-72
2023/05/07 02:26:58;;;;;;;4.63;3.20;;;15.80;99.90;;;;;;5116579;28;20046;-72
2023/05/07 02:29:23;;;;;;;4.25;2.88;;;15.60;99.90;;;;;;5116687;28;20047;-73
2023/05/07 02:31:50;;;;;;;4.85;3.05;;;15.60;99.90;;;;;;5117517;28;20020;-73
2023/05/07 02:34:16;;;;;;;6.80;3.63;;;15.70;99.90;;;;;;5116686;28;20054;-73
2023/05/07 02:36:42;;;;;;;4.25;2.60;;;15.80;99.90;;;;;;5117506;28;20115;-73
2023/05/07 02:39:08;;;;;;;3.10;2.80;;;15.80;99.90;;;;;;5116689;28;20111;-73
2023/05/07 02:41:33;;;;;;;6.30;2.90;;;15.80;99.90;;;;;;5117016;28;20046;-73
2023/05/07 02:43:59;;;;;;;7.63;3.35;;;15.70;99.90;;;;;;5117509;28;20089;-72
2023/05/07 02:46:24;;;;;;;5.53;3.53;;;15.60;99.90;;;;;;5116422;28;20019;-72
2023/05/07 02:48:50;;;;;;;4.93;3.47;;;15.50;99.90;;;;;;5116486;28;20064;-72
2023/05/07 02:51:19;;;;;;;4.78;3.03;;;15.60;99.90;;;;;;5116691;28;20023;-73
2023/05/07 02:53:45;;;;;;;7.63;3.45;;;15.50;99.90;;;;;;5116761;28;20028;-72
2023/05/07 02:56:11;;;;;;;5.15;3.25;;;15.70;99.90;;;;;;5117422;28;20047;-73
2023/05/07 02:58:39;;;;;;;5.45;3.10;;;15.70;99.90;;;;;;5116534;28;20058;-72
2023/05/07 03:01:05;;;;;;;6.10;3.20;;;15.70;99.90;;;;;;5117573;28;20027;-72
2023/05/07 03:03:30;;;;;;;4.18;2.97;;;15.70;99.90;;;;;;5116309;28;20027;-72
2023/05/07 03:05:56;;;;;;;8.68;3.97;;;15.80;99.90;;;;;;5116448;28;20024;-72
2023/05/07 03:08:22;;;;;;;3.83;2.92;;;15.80;99.90;;;;;;5117164;28;20020;-73
2023/05/07 03:10:48;;;;;;;4.05;3.10;;;15.80;99.90;;;;;;5116330;28;20027;-73
2023/05/07 03:13:14;;;;;;;7.68;3.92;;;15.80;99.90;;;;;;5117133;28;20077;-73
2023/05/07 03:15:40;;;;;;;5.90;3.75;;;15.70;99.90;;;;;;5120619;28;20045;-73
2023/05/07 03:18:05;;;;;;;8.52;3.95;;;15.60;99.90;;;;;;5121028;28;20023;-72
2023/05/07 03:20:31;;;;;;;6.72;3.83;;;15.60;99.90;;;;;;5120165;28;20110;-73
2023/05/07 03:22:57;;;;;;;6.35;3.65;;;15.60;99.90;;;;;;5120447;28;20043;-72
2023/05/07 03:25:22;;;;;;;4.97;3.65;;;15.70;99.90;;;;;;5120936;27;20020;-72
2023/05/07 03:27:48;;;;;;;5.57;3.40;;;15.70;99.90;;;;;;5121171;28;20019;-72
2023/05/07 03:30:13;;;;;;;8.05;4.20;;;15.60;99.90;;;;;;5119931;28;20019;-72
2023/05/07 03:32:39;;;;;;;8.80;4.25;;;15.70;99.90;;;;;;5119891;28;20023;-72
2023/05/07 03:35:05;;;;;;;6.85;3.67;;;15.50;99.90;;;;;;5121028;28;20034;-72
2023/05/07 03:37:31;;;;;;;9.93;4.60;;;15.60;99.90;;;;;;5119722;28;20027;-72
2023/05/07 03:39:56;;;;;;;7.57;4.30;;;15.70;99.90;;;;;;5119835;28;20058;-72
2023/05/07 03:42:22;;;;;;;8.50;5.03;;;15.70;99.90;;;;;;5120471;28;20050;-72
2023/05/07 03:44:47;;;;;;;9.32;4.55;;;15.70;99.90;;;;;;5119952;28;20020;-72
2023/05/07 03:47:13;;;;;;;6.60;4.43;;;15.70;99.90;;;;;;5120433;28;20016;-72
2023/05/07 03:49:39;;;;;;;7.07;5.07;;;15.60;99.90;;;;;;5119949;28;20073;-72
2023/05/07 03:52:05;;;;;;;7.75;5.22;;;15.50;99.90;;;;;;5119449;28;20020;-72
2023/05/07 03:54:31;;;;;;;9.27;5.68;;;15.50;99.90;;;;;;5119689;28;20127;-72
2023/05/07 03:56:56;;;;;;;8.65;5.28;;;15.40;99.90;;;;;;5119427;28;20115;-72
2023/05/07 03:59:22;;;;;;;9.05;5.35;;;15.50;99.90;;;;;;5120923;28;20049;-72
2023/05/07 04:01:48;;;;;;;14.48;5.97;;;15.30;99.90;;;;;;5119499;28;20042;-72
2023/05/07 04:04:14;;;;;;;10.00;5.60;;;15.30;99.90;;;;;;5119342;28;20051;-72
2023/05/07 04:06:40;;;;;;;11.88;6.70;;;15.30;99.90;;;;;;5119725;28;20019;-73
2023/05/07 04:09:06;;;;;;;13.05;6.28;;;15.30;99.90;;;;;;5119796;28;20016;-72
2023/05/07 04:11:32;;;;;;;11.60;6.90;;;15.10;99.90;;;;;;5120190;28;20024;-72
2023/05/07 04:13:57;;;;;;;9.35;6.43;;;15.10;99.90;;;;;;5119210;28;20034;-72
2023/05/07 04:16:23;;;;;;;11.35;6.97;;;14.90;99.90;;;;;;5119041;28;20028;-72
2023/05/07 04:18:48;;;;;;;12.20;6.00;;;15.00;99.90;;;;;;5119087;28;20024;-72
2023/05/07 04:21:19;;;;;;;16.33;7.05;;;15.20;99.90;;;;;;5118766;28;20087;-72
2023/05/07 04:23:45;;;;;;;9.48;7.20;;;15.20;99.90;;;;;;5118890;28;20095;-72
2023/05/07 04:26:11;;;;;;;10.57;6.78;;;15.20;99.90;;;;;;5118707;28;20027;-72
2023/05/07 04:28:36;;;;;;;11.57;7.30;;;15.20;99.90;;;;;;5118803;28;20020;-72
2023/05/07 04:31:02;;;;;;;11.27;7.18;;;15.30;99.90;;;;;;5118754;28;20027;-72
2023/05/07 04:33:28;;;;;;;13.45;7.70;;;15.40;99.90;;;;;;5118654;28;20019;-72
2023/05/07 04:35:53;;;;;;;14.95;8.48;;;15.20;99.90;;;;;;5119060;28;20030;-72
2023/05/07 04:38:19;;;;;;;15.63;8.27;;;15.20;99.90;;;;;;5118827;28;20023;-72
2023/05/07 04:40:44;;;;;;;14.40;8.07;;;15.30;99.90;;;;;;5118591;28;20032;-72
2023/05/07 04:43:10;;;;;;;13.68;7.97;;;15.30;99.90;;;;;;5119393;28;20031;-72
2023/05/07 04:45:36;;;;;;;16.23;9.18;;;15.20;99.90;;;;;;5118860;28;20019;-72
2023/05/07 04:48:02;;;;;;;15.82;9.30;;;15.30;99.90;;;;;;5118446;28;20047;-72
2023/05/07 04:50:27;;;;;;;14.45;9.18;;;15.20;99.90;;;;;;5119417;28;20097;-72
2023/05/07 04:52:53;;;;;;;15.57;9.98;;;15.20;99.90;;;;;;5118438;28;20055;-72
2023/05/07 04:55:18;;;;;;;15.93;9.18;;;15.20;99.90;;;;;;5119160;28;20027;-72
2023/05/07 04:57:45;;;;;;;20.50;10.43;;;15.30;99.90;;;;;;5118771;28;20028;-72
2023/05/07 05:00:13;;;;;;;14.35;8.98;;;15.20;99.90;;;;;;5118411;28;20032;-72
2023/05/07 05:02:39;;;;;;;21.23;10.52;;;15.10;99.90;;;;;;5118220;28;20023;-72
2023/05/07 05:05:05;;;;;;;15.98;9.40;;;15.10;99.90;;;;;;5118193;28;20027;-72
2023/05/07 05:07:31;;;;;;;15.93;9.95;;;15.20;99.90;;;;;;5119438;28;20088;-72
2023/05/07 05:09:57;;;;;;;19.67;10.73;;;15.20;99.90;;;;;;5119111;28;20019;-72
2023/05/07 05:12:23;;;;;;;19.05;9.88;;;15.20;99.90;;;;;;5118817;28;20020;-72
2023/05/07 05:14:48;;;;;;;18.02;10.52;;;15.20;99.90;;;;;;5118216;28;20024;-72
2023/05/07 05:17:14;;;;;;;24.63;11.20;;;15.20;99.90;;;;;;5119114;27;20030;-72
2023/05/07 05:19:39;;;;;;;20.05;10.75;;;15.30;99.90;;;;;;5117670;28;20019;-72
2023/05/07 05:22:05;;;;;;;19.30;11.10;;;15.40;99.90;;;;;;5117667;28;20023;-72
2023/05/07 05:24:31;;;;;;;17.17;11.32;;;15.40;99.90;;;;;;5118074;28;20015;-72
2023/05/07 05:26:57;;;;;;;18.88;11.63;;;15.40;99.90;;;;;;5118013;28;20062;-72
2023/05/07 05:29:22;;;;;;;19.25;10.93;;;15.40;99.90;;;;;;5117526;28;20075;-72
2023/05/07 05:31:48;;;;;;;22.08;11.75;;;15.30;99.90;;;;;;5118255;28;20034;-72
2023/05/07 05:34:13;;;;;;;18.60;11.68;;;15.20;99.90;;;;;;5118380;28;20020;-72
2023/05/07 05:36:39;;;;;;;18.80;11.18;;;15.20;99.90;;;;;;5118318;28;20043;-72
2023/05/07 05:39:05;;;;;;;22.13;12.80;;;15.20;99.90;;;;;;5117305;28;20106;-72
2023/05/07 05:41:31;;;;;;;26.33;13.13;;;15.10;99.90;;;;;;5118103;28;20015;-72
2023/05/07 05:43:59;;;;;;;20.92;12.02;;;15.20;99.90;;;;;;5117302;28;20073;-72
2023/05/07 05:46:25;;;;;;;19.20;12.45;;;14.90;99.90;;;;;;5117422;28;20026;-72
2023/05/07 05:48:50;;;;;;;19.63;12.45;;;15.10;99.90;;;;;;5117641;28;20047;-72
2023/05/07 05:51:16;;;;;;;20.58;12.95;;;15.20;99.90;;;;;;5118056;28;20023;-72
2023/05/07 05:53:41;;;;;;;26.13;13.48;;;15.20;99.90;;;;;;5117589;28;20026;-72
2023/05/07 05:56:07;;;;;;;21.58;12.88;;;15.30;99.90;;;;;;5117528;28;20028;-72
2023/05/07 05:58:33;;;;;;;25.60;13.63;;;15.30;99.90;;;;;;5117974;28;20023;-72
2023/05/07 06:00:58;;;;;;;19.02;12.60;;;15.30;99.90;;;;;;5117596;28;20070;-73
2023/05/07 06:03:24;;;;;;;21.85;13.05;;;15.40;99.90;;;;;;5116863;28;20130;-73
2023/05/07 06:05:50;;;;;;;21.15;13.05;;;15.50;99.90;;;;;;5117405;28;20020;-73
2023/05/07 06:08:15;;;;;;;25.70;13.50;;;15.50;99.90;;;;;;5117762;28;20020;-73
2023/05/07 06:10:41;;;;;;;24.50;13.35;;;15.40;99.90;;;;;;5116872;28;20179;-73
2023/05/07 06:13:07;;;;;;;21.83;13.40;;;15.40;99.90;;;;;;5116979;28;20034;-73
2023/05/07 06:15:32;;;;;;;24.42;14.40;;;15.40;99.90;;;;;;5116894;28;20035;-73
2023/05/07 06:17:58;;;;;;;22.50;14.30;;;15.50;99.90;;;;;;5118031;28;20027;-74
2023/05/07 06:20:23;;;;;;;27.13;14.48;;;15.60;99.90;;;;;;5116688;28;20027;-73
2023/05/07 06:22:49;;;;;;;24.25;14.10;;;15.30;99.90;;;;;;5116989;28;20065;-73
2023/05/07 06:25:14;;;;;;;28.45;15.02;;;15.50;99.90;;;;;;5117255;28;20023;-73
2023/05/07 06:27:40;;;;;;;35.25;14.07;;;15.60;99.90;;;;;;5116991;28;20012;-73
2023/05/07 06:30:08;;;;;;;26.05;14.75;;;15.60;99.90;;;;;;5116673;28;20020;-73
2023/05/07 06:32:33;;;;;;;29.70;15.27;;;15.60;99.90;;;;;;5117002;28;20027;-73
2023/05/07 06:34:59;;;;;;;28.58;15.68;;;15.70;99.90;;;;;;5116720;28;20048;-73
2023/05/07 06:37:25;;;;;;;25.25;15.07;;;15.70;99.90;;;;;;5117894;28;20019;-73
2023/05/07 06:39:50;;;;;;;24.02;15.57;;;15.70;99.90;;;;;;5116465;28;20023;-73
2023/05/07 06:42:16;;;;;;;25.30;15.02;;;15.80;99.90;;;;;;5117560;28;20145;-73
2023/05/07 06:44:41;;;;;;;23.63;14.48;;;15.80;99.90;;;;;;5117303;28;20027;-73
2023/05/07 06:47:07;;;;;;;23.27;14.27;;;15.80;99.90;;;;;;5116565;28;20110;-73
2023/05/07 06:49:33;;;;;;;26.92;15.43;;;15.90;99.90;;;;;;5119083;28;20024;-73
2023/05/07 06:51:58;;;;;;;25.77;15.40;;;16.00;99.90;;;;;;5121631;28;20019;-73
2023/05/07 06:54:24;;;;;;;25.83;14.13;;;15.90;99.90;;;;;;5121574;28;20131;-73
2023/05/07 06:56:49;;;;;;;26.92;14.88;;;16.00;99.90;;;;;;5121231;28;20020;-73
2023/05/07 06:59:15;;;;;;;27.55;15.38;;;16.00;99.90;;;;;;5120543;28;20031;-73
2023/05/07 07:01:41;;;;;;;29.85;15.32;;;16.20;99.90;;;;;;5120599;28;20028;-73
2023/05/07 07:04:07;;;;;;;24.70;13.98;;;16.20;99.90;;;;;;5120822;28;20053;-73
2023/05/07 07:06:32;;;;;;;25.70;14.82;;;16.20;99.90;;;;;;5120517;28;20016;-74
2023/05/07 07:08:59;;;;;;;26.75;13.98;;;16.20;99.90;;;;;;5120984;28;20019;-73
2023/05/07 07:11:24;;;;;;;26.42;15.23;;;16.20;99.90;;;;;;5122849;28;20024;-73
2023/05/07 07:13:50;;;;;;;29.63;14.75;;;16.00;99.90;;;;;;5120633;28;20034;-73
2023/05/07 07:16:16;;;;;;;26.63;14.88;;;16.10;99.90;;;;;;5120190;28;20031;-74
2023/05/07 07:18:42;;;;;;;23.90;14.30;;;16.20;99.90;;;;;;5120155;28;20035;-73
2023/05/07 07:21:07;;;;;;;20.58;13.30;;;16.40;99.90;;;;;;5120023;28;20144;-73
2023/05/07 07:23:33;;;;;;;24.80;14.10;;;16.50;99.90;;;;;;5121164;28;20027;-73
2023/05/07 07:25:58;;;;;;;28.60;15.30;;;16.50;99.90;;;;;;5120169;28;20016;-73
2023/05/07 07:28:24;;;;;;;26.63;14.38;;;16.40;99.90;;;;;;5120161;28;20051;-73
2023/05/07 07:30:50;;;;;;;21.80;13.98;;;16.50;99.90;;;;;;5119902;28;20016;-74
2023/05/07 07:33:15;;;;;;;23.17;12.90;;;16.40;99.90;;;;;;5121110;28;20033;-73
2023/05/07 07:35:42;;;;;;;22.27;12.40;;;16.30;99.90;;;;;;5120212;28;20024;-73
2023/05/07 07:38:07;;;;;;;20.25;12.13;;;16.50;99.90;;;;;;5120206;28;20028;-73
2023/05/07 07:40:35;;;;;;;19.35;12.13;;;16.40;99.90;;;;;;5119703;28;20088;-73
2023/05/07 07:43:01;;;;;;;18.38;11.63;;;16.50;99.90;;;;;;5121138;28;20027;-74
2023/05/07 07:45:26;;;;;;;26.38;14.65;;;16.60;99.90;;;;;;5119926;28;20020;-74
2023/05/07 07:47:52;;;;;;;29.13;14.88;;;16.60;99.90;;;;;;5120036;28;20027;-73
2023/05/07 07:50:18;;;;;;;22.85;14.40;;;16.70;99.90;;;;;;5120716;28;20016;-74
2023/05/07 07:52:44;;;;;;;21.20;13.40;;;16.70;99.90;;;;;;5119641;28;20019;-73
2023/05/07 07:55:09;;;;;;;22.55;13.70;;;16.80;99.90;;;;;;5119527;28;20115;-73
2023/05/07 07:57:35;;;;;;;26.17;14.20;;;16.90;99.90;;;;;;5119559;28;20047;-73
2023/05/07 08:00:01;;;;;;;21.92;12.95;;;16.80;99.90;;;;;;5120298;28;20031;-73
2023/05/07 08:02:26;;;;;;;19.08;12.50;;;16.80;99.90;;;;;;5119309;28;20030;-73
2023/05/07 08:04:52;;;;;;;26.00;13.48;;;16.90;99.90;;;;;;5120215;28;20030;-74
2023/05/07 08:07:20;;;;;;;21.20;12.32;;;17.00;99.90;;;;;;5119695;28;20020;-74
2023/05/07 08:09:46;;;;;;;21.08;12.38;;;17.10;99.90;;;;;;5120010;28;20031;-74
2023/05/07 08:12:11;;;;;;;18.50;11.77;;;17.10;99.90;;;;;;5119072;28;20020;-74
2023/05/07 08:14:37;;;;;;;25.55;12.10;;;17.10;99.90;;;;;;5119461;28;20022;-74
2023/05/07 08:17:03;;;;;;;22.13;12.48;;;17.20;99.90;;;;;;5119873;28;20020;-74
2023/05/07 08:19:28;;;;;;;19.27;12.32;;;17.20;99.90;;;;;;5119504;28;20031;-74
2023/05/07 08:21:55;;;;;;;20.77;12.68;;;17.20;99.90;;;;;;5120077;28;20098;-74
2023/05/07 08:24:20;;;;;;;18.25;10.63;;;17.30;99.90;;;;;;5119290;28;20118;-74
2023/05/07 08:26:46;;;;;;;21.08;11.90;;;17.20;99.90;;;;;;5120032;28;20039;-74
2023/05/07 08:29:12;;;;;;;18.85;11.45;;;17.30;99.90;;;;;;5119313;28;20027;-74
2023/05/07 08:31:39;;;;;;;21.35;11.50;;;17.30;99.90;;;;;;5118754;28;20023;-74
2023/05/07 08:34:06;;;;;;;19.40;10.68;;;17.40;99.90;;;;;;5119551;28;20054;-74
2023/05/07 08:36:32;;;;;;;17.45;10.98;;;17.30;99.90;;;;;;5119500;28;20030;-74
2023/05/07 08:38:57;;;;;;;17.35;10.50;;;17.40;99.90;;;;;;5118716;28;20020;-74
2023/05/07 08:41:23;;;;;;;16.38;10.80;;;17.40;99.90;;;;;;5118692;28;20023;-74
2023/05/07 08:43:50;;;;;;;19.17;10.98;;;17.30;99.90;;;;;;5119529;28;20024;-73
2023/05/07 08:46:22;;;;;;;16.70;10.88;;;17.30;99.90;;;;;;5119275;28;20032;-73
2023/05/07 08:48:49;;;;;;;19.88;11.57;;;17.30;99.90;;;;;;5118766;28;20024;-73
2023/05/07 08:51:18;;;;;;;19.05;10.30;;;17.40;99.90;;;;;;5118331;28;20024;-73
2023/05/07 08:53:44;;;;;;;20.65;11.27;;;17.40;99.90;;;;;;5119301;28;20027;-73
2023/05/07 08:56:11;;;;;;;16.92;10.68;;;17.50;99.90;;;;;;5119536;28;20100;-73
2023/05/07 08:58:36;;;;;;;17.55;10.48;;;17.60;99.90;;;;;;5119051;28;20024;-73
2023/05/07 09:01:13;;;;;;;18.55;10.65;;;17.60;99.90;;;;;;5118273;28;20042;-73
2023/05/07 09:03:39;;;;;;;17.70;10.63;;;17.60;99.90;;;;;;5119208;28;20027;-74
2023/05/07 09:06:05;;;;;;;17.10;10.50;;;17.80;99.90;;;;;;5118136;28;20031;-73
2023/05/07 09:08:33;;;;;;;20.77;11.07;;;17.90;99.90;;;;;;5118197;28;20020;-73
2023/05/07 09:10:58;;;;;;;20.17;10.98;;;17.90;99.90;;;;;;5119066;28;20102;-74
2023/05/07 09:13:24;;;;;;;15.90;9.80;;;18.10;99.90;;;;;;5118121;28;20069;-73
2023/05/07 09:15:50;;;;;;;21.23;10.57;;;18.00;99.90;;;;;;5118824;28;20088;-73
2023/05/07 09:18:15;;;;;;;16.75;10.00;;;18.10;99.90;;;;;;5118133;28;20027;-74
2023/05/07 09:20:41;;;;;;;15.90;9.88;;;18.20;99.90;;;;;;5119461;28;20119;-73
2023/05/07 09:23:07;;;;;;;14.80;9.00;;;18.20;99.90;;;;;;5118873;28;20045;-73
2023/05/07 09:25:34;;;;;;;15.18;8.73;;;18.40;99.90;;;;;;5117996;28;20030;-73
2023/05/07 09:28:01;;;;;;;11.55;7.95;;;18.60;99.90;;;;;;5117588;28;20023;-73
2023/05/07 09:30:34;;;;;;;12.88;8.38;;;18.70;99.90;;;;;;5117626;28;20026;-73
2023/05/07 09:33:02;;;;;;;13.75;9.20;;;18.70;99.90;;;;;;5118489;28;20024;-73
2023/05/07 09:35:29;;;;;;;18.15;10.18;;;18.80;99.90;;;;;;5118323;28;20023;-73
2023/05/07 09:37:59;;;;;;;14.00;9.20;;;18.80;99.90;;;;;;5117530;28;20030;-74
2023/05/07 09:40:27;;;;;;;14.77;8.90;;;19.00;99.90;;;;;;5117445;28;20053;-73
2023/05/07 09:42:53;;;;;;;12.98;8.85;;;18.90;99.90;;;;;;5117402;28;20062;-73
2023/05/07 09:45:26;;;;;;;12.70;8.02;;;19.10;99.90;;;;;;5118127;27;20051;-74
2023/05/07 09:47:57;;;;;;;13.02;9.18;;;19.10;99.90;;;;;;5117720;28;20027;-74
2023/05/07 09:50:28;;;;;;;13.80;8.20;;;19.10;99.90;;;;;;5117877;28;20019;-74
2023/05/07 09:52:57;;;;;;;12.83;7.70;;;19.30;99.90;;;;;;5117237;28;20035;-74
2023/05/07 09:55:23;;;;;;;12.18;8.18;;;19.40;99.90;;;;;;5117964;28;20310;-74
2023/05/07 09:57:53;;;;;;;11.20;7.50;;;19.50;99.90;;;;;;5117214;28;20020;-74
2023/05/07 10:00:21;;;;;;;12.50;8.20;;;19.60;99.90;;;;;;5117558;28;20031;-74
2023/05/07 10:02:49;;;;;;;14.00;8.45;;;19.70;99.90;;;;;;5117845;28;20041;-74
2023/05/07 10:05:15;;;;;;;10.77;6.85;;;19.90;99.90;;;;;;5117944;28;20020;-74
2023/05/07 10:07:41;;;;;;;13.00;7.97;;;20.00;99.90;;;;;;5117016;28;20030;-74
2023/05/07 10:10:07;;;;;;;11.45;6.78;;;20.20;99.90;;;;;;5116895;28;20050;-74
2023/05/07 10:12:38;;;;;;;16.20;7.97;;;20.40;99.90;;;;;;5116901;28;20027;-74
2023/05/07 10:15:10;;;;;;;14.13;7.47;;;20.60;99.90;;;;;;5117227;28;20073;-74
2023/05/07 10:17:37;;;;;;;13.95;7.88;;;20.80;99.90;;;;;;5116936;28;20115;-74
2023/05/07 10:20:03;;;;;;;11.05;7.22;;;21.00;99.90;;;;;;5117632;28;20023;-74
2023/05/07 10:22:51;;;;;;;10.50;6.50;;;21.20;99.90;;;;;;5117410;28;20028;-74
2023/05/07 10:25:29;;;;;;;8.30;5.97;;;21.30;99.90;;;;;;5116205;28;20035;-74
2023/05/07 10:27:59;;;;;;;8.45;6.68;;;21.50;99.90;;;;;;5116858;28;20051;-73
2023/05/07 10:30:55;;;;;;;9.95;5.57;;;21.50;99.90;;;;;;5117558;28;20031;-74
2023/05/07 10:33:26;;;;;;;10.25;5.85;;;21.40;99.90;;;;;;5116720;28;20027;-74
2023/05/07 10:35:55;;;;;;;7.60;5.50;;;21.30;99.90;;;;;;5116936;28;20020;-74
2023/05/07 10:38:21;;;;;;;8.13;5.97;;;21.20;99.90;;;;;;5117311;28;20034;-74
2023/05/07 10:40:46;;;;;;;8.55;5.93;;;21.10;99.90;;;;;;5116740;28;20020;-73
2023/05/07 10:43:12;;;;;;;8.82;5.80;;;21.10;99.90;;;;;;5117421;28;20119;-73
2023/05/07 10:45:37;;;;;;;7.68;5.80;;;21.10;99.90;;;;;;5116682;28;20028;-74
2023/05/07 10:48:16;;;;;;;9.27;6.47;;;21.10;99.90;;;;;;5116697;28;20022;-74
2023/05/07 10:50:44;;;;;;;7.22;5.80;;;21.10;99.90;;;;;;5117363;28;20084;-74
2023/05/07 10:53:18;;;;;;;9.82;6.20;;;21.10;99.90;;;;;;5116863;28;20028;-74
2023/05/07 10:55:52;;;;;;;10.50;6.03;;;21.10;99.90;;;;;;5118291;28;20020;-74
2023/05/07 10:58:27;;;;;;;9.35;5.53;;;21.10;99.90;;;;;;5116586;28;20114;-74
2023/05/07 11:01:01;;;;;;;10.85;6.47;;;21.20;99.90;;;;;;5117029;28;20095;-74
2023/05/07 11:03:27;;;;;;;6.97;5.45;;;21.20;99.90;;;;;;5116984;28;20024;-74
2023/05/07 11:06:10;;;;;;;12.32;6.10;;;21.30;99.90;;;;;;5118298;28;20020;-73
2023/05/07 11:08:52;;;;;;;9.98;6.10;;;21.20;99.90;;;;;;5116330;28;20102;-73
2023/05/07 11:11:19;;;;;;;11.13;6.63;;;21.20;99.90;;;;;;5116435;28;20024;-73
2023/05/07 11:13:46;;;;;;;9.27;6.00;;;21.10;99.90;;;;;;5117245;28;20055;-74
2023/05/07 11:16:18;;;;;;;12.27;6.50;;;21.00;99.90;;;;;;5117245;28;20023;-74
2023/05/07 11:18:52;;;;;;;7.57;5.55;;;21.10;99.90;;;;;;5117088;28;20074;-74
2023/05/07 11:21:38;;;;;;;8.98;5.20;;;21.10;99.90;;;;;;5117428;28;20076;-74
2023/05/07 11:24:05;;;;;;;7.45;5.63;;;21.20;99.90;;;;;;5117203;28;20099;-74
2023/05/07 11:26:42;;;;;;;10.45;5.78;;;21.10;99.90;;;;;;5117190;28;20086;-74
2023/05/07 11:29:27;;;;;;;9.82;5.82;;;21.20;99.90;;;;;;5117441;28;20015;-74
2023/05/07 11:31:54;;;;;;;10.80;6.18;;;21.50;99.90;;;;;;5116273;28;20138;-74
2023/05/07 11:34:25;;;;;;;7.65;5.13;;;21.50;99.90;;;;;;5116366;28;20073;-74
2023/05/07 11:36:51;;;;;;;;;;;21.60;99.90;;;;;;5121278;28;20031;-74
2023/05/07 11:39:43;;;;;;;11.27;6.07;;;21.80;99.90;;;;;;5120239;28;19952;-74
2023/05/07 11:42:32;;;;;;;7.50;5.50;;;21.90;99.90;;;;;;5116971;28;20080;-74
2023/05/07 11:44:58;;;;;;;10.88;5.88;;;21.90;99.90;;;;;;5120756;28;20062;-74
2023/05/07 11:47:25;;;;;;;11.15;6.18;;;22.20;99.90;;;;;;5121324;28;20058;-74
2023/05/07 11:49:52;;;;;;;9.52;6.38;;;22.30;99.90;;;;;;5123213;28;20042;-73
2023/05/07 11:52:19;;;;;;;7.65;5.07;;;22.60;99.90;;;;;;5122387;28;20023;-74
2023/05/07 11:54:52;;;;;;;8.45;5.72;;;22.70;99.90;;;;;;5119810;28;20024;-74
2023/05/07 11:57:18;;;;;;;9.35;5.68;;;23.20;99.90;;;;;;5120575;28;20031;-73
2023/05/07 12:02:15;;;;;;;7.25;5.70;;;23.90;99.90;;;;;;5019125;28;20053;-72
2023/05/07 12:04:41;;;;;;;11.85;6.40;;;23.90;99.90;;;;;;5018999;28;20030;-71
2023/05/07 12:07:14;;;;;;;8.52;6.07;;;24.00;99.90;;;;;;5019992;28;20045;-71
2023/05/07 12:09:47;;;;;;;10.38;4.65;;;23.80;99.90;;;;;;5019796;28;20033;-71
2023/05/07 12:12:15;;;;;;;5.53;4.90;;;24.20;99.90;;;;;;5000161;28;20049;-71
2023/05/07 12:14:45;;;;;;;7.28;4.90;;;24.60;99.90;;;;;;4999135;28;20022;-72
2023/05/07 12:17:12;;;;;;;6.07;4.68;;;25.00;99.90;;;;;;4999181;28;20022;-72
2023/05/07 12:19:39;;;;;;;11.88;5.30;;;25.40;99.90;;;;;;4999400;28;20033;-72
2023/05/07 12:22:07;;;;;;;7.68;5.00;;;25.50;99.90;;;;;;4999796;28;20022;-72
2023/05/07 12:24:49;;;;;;;5.00;3.88;;;25.30;99.90;;;;;;4999040;28;20022;-72
2023/05/07 12:27:16;;;;;;;8.23;4.93;;;25.40;99.90;;;;;;4999912;28;20086;-72
2023/05/07 12:29:46;;;;;;;5.63;4.72;;;25.50;99.90;;;;;;4998830;28;20053;-71
2023/05/07 12:32:20;;;;;;;6.13;4.60;;;25.50;99.90;;;;;;4999945;28;20022;-72
2023/05/07 12:34:49;;;;;;;6.97;5.07;;;25.70;99.90;;;;;;4999501;28;20022;-71
2023/05/07 12:37:14;;;;;;;6.25;4.88;;;26.00;99.90;;;;;;4999156;28;20023;-72
2023/05/07 12:40:10;;;;;;;6.72;5.03;;;26.20;99.90;;;;;;4999417;28;20046;-71